createdAt,value
2023-03-17T00:00:57.948Z,4.77
2023-03-17T00:03:30.929Z,4.79
2023-03-17T00:05:59.548Z,4.77
2023-03-17T00:08:36.026Z,4.73
2023-03-17T00:11:05.992Z,4.70
2023-03-17T00:13:36.191Z,4.68
2023-03-17T00:16:07.047Z,4.63
2023-03-17T00:18:38.300Z,4.58
2023-03-17T00:21:14.398Z,4.55
2023-03-17T00:23:44.406Z,4.54
2023-03-17T00:26:14.836Z,4.53
2023-03-17T00:28:44.894Z,4.52
2023-03-17T00:31:20.605Z,4.49
2023-03-17T00:33:53.475Z,4.48
2023-03-17T00:36:27.580Z,4.46
2023-03-17T00:38:57.855Z,4.49
2023-03-17T00:41:26.786Z,4.51
2023-03-17T00:43:58.125Z,4.50
2023-03-17T00:46:35.020Z,4.46
2023-03-17T00:49:32.362Z,4.47
2023-03-17T00:52:01.259Z,4.50
2023-03-17T00:54:30.128Z,4.51
2023-03-17T00:57:09.320Z,4.48
2023-03-17T00:59:43.342Z,4.46
2023-03-17T01:02:14.503Z,4.44
2023-03-17T01:04:52.868Z,4.42
2023-03-17T01:07:29.999Z,4.38
2023-03-17T01:10:00.123Z,4.36
2023-03-17T01:14:11.864Z,4.39
2023-03-17T01:16:45.026Z,4.42
2023-03-17T01:19:16.709Z,4.43
2023-03-17T01:21:46.005Z,4.41
2023-03-17T01:24:16.527Z,4.40
2023-03-17T01:26:46.616Z,4.36
2023-03-17T01:29:16.077Z,4.30
2023-03-17T01:31:45.715Z,4.27
2023-03-17T01:34:18.549Z,4.25
2023-03-17T01:36:49.808Z,4.18
2023-03-17T01:39:19.477Z,4.14
2023-03-17T01:42:10.021Z,4.06
2023-03-17T01:45:05.315Z,4.05
2023-03-17T01:47:35.712Z,4.04
2023-03-17T01:50:08.215Z,4.03
2023-03-17T01:52:40.041Z,3.98
2023-03-17T01:55:15.723Z,3.98
2023-03-17T01:57:53.908Z,4.00
2023-03-17T02:00:26.579Z,4.03
2023-03-17T02:02:58.534Z,4.02
2023-03-17T02:05:29.289Z,4.03
2023-03-17T02:08:01.132Z,4.03
2023-03-17T02:10:36.579Z,4.01
2023-03-17T02:13:10.168Z,4.02
2023-03-17T02:15:45.805Z,4.04
2023-03-17T02:18:17.320Z,4.02
2023-03-17T02:21:23.899Z,4.02
2023-03-17T02:23:59.812Z,4.00
2023-03-17T02:26:32.869Z,4.00
2023-03-17T02:29:03.660Z,4.05
2023-03-17T02:31:35.631Z,4.09
2023-03-17T02:34:03.356Z,4.13
2023-03-17T02:36:32.133Z,4.17
2023-03-17T02:39:01.952Z,4.19
2023-03-17T02:41:42.672Z,4.18
2023-03-17T02:44:16.221Z,4.17
2023-03-17T02:46:46.589Z,4.11
2023-03-17T02:49:14.124Z,4.05
2023-03-17T02:51:45.634Z,4.03
2023-03-17T02:54:16.027Z,4.02
2023-03-17T02:56:46.719Z,4.02
2023-03-17T02:59:21.104Z,4.01
2023-03-17T03:01:50.528Z,3.96
2023-03-17T03:04:21.094Z,3.89
2023-03-17T03:06:52.063Z,3.87
2023-03-17T03:09:23.729Z,3.84
2023-03-17T03:11:55.602Z,3.82
2023-03-17T03:14:29.081Z,3.81
2023-03-17T03:16:58.186Z,3.79
2023-03-17T03:19:30.434Z,3.78
2023-03-17T03:22:04.285Z,3.80
2023-03-17T03:24:31.979Z,3.80
2023-03-17T03:27:10.555Z,3.80
2023-03-17T03:30:07.773Z,3.83
2023-03-17T03:32:39.146Z,3.85
2023-03-17T03:35:08.817Z,3.79
2023-03-17T03:37:40.084Z,3.72
2023-03-17T03:40:46.841Z,3.74
2023-03-17T03:43:22.774Z,3.75
2023-03-17T03:45:56.915Z,3.75
2023-03-17T03:48:25.751Z,3.75
2023-03-17T03:51:01.567Z,3.71
2023-03-17T03:53:29.904Z,3.71
2023-03-17T03:56:03.813Z,3.69
2023-03-17T03:58:35.131Z,3.67
2023-03-17T04:01:06.854Z,3.68
2023-03-17T04:04:01.962Z,3.67
2023-03-17T04:06:33.167Z,3.65
2023-03-17T04:09:06.209Z,3.64
2023-03-17T04:11:39.877Z,3.59
2023-03-17T04:14:12.714Z,3.59
2023-03-17T04:16:46.290Z,3.54
2023-03-17T04:19:16.102Z,3.50
2023-03-17T04:21:54.391Z,3.47
2023-03-17T04:24:27.335Z,3.48
2023-03-17T04:26:57.463Z,3.49
2023-03-17T04:29:48.511Z,3.47
2023-03-17T04:32:18.889Z,3.41
2023-03-17T04:34:49.989Z,3.37
2023-03-17T04:37:27.012Z,3.33
2023-03-17T04:39:59.663Z,3.32
2023-03-17T04:42:30.017Z,3.33
2023-03-17T04:45:09.015Z,3.31
2023-03-17T04:47:45.909Z,3.24
2023-03-17T04:50:19.531Z,3.22
2023-03-17T04:52:55.382Z,3.23
2023-03-17T04:55:27.218Z,3.22
2023-03-17T04:57:59.133Z,3.28
2023-03-17T05:00:29.072Z,3.26
2023-03-17T05:03:28.145Z,3.22
2023-03-17T05:06:06.699Z,3.24
2023-03-17T05:08:38.424Z,3.22
2023-03-17T05:11:12.196Z,3.24
2023-03-17T05:13:44.392Z,3.27
2023-03-17T05:16:16.467Z,3.31
2023-03-17T05:19:03.241Z,3.37
2023-03-17T05:21:34.330Z,3.36
2023-03-17T05:24:06.009Z,3.34
2023-03-17T05:26:41.377Z,3.34
2023-03-17T05:29:13.283Z,3.30
2023-03-17T05:31:47.074Z,3.23
2023-03-17T05:34:29.750Z,3.21
2023-03-17T05:37:02.885Z,3.22
2023-03-17T05:39:33.616Z,3.21
2023-03-17T05:42:03.290Z,3.21
2023-03-17T05:44:34.205Z,3.18
2023-03-17T05:47:05.253Z,3.15
2023-03-17T05:49:38.539Z,3.13
2023-03-17T05:52:28.957Z,3.07
2023-03-17T05:55:06.941Z,3.03
2023-03-17T05:57:37.199Z,3.04
2023-03-17T06:00:12.778Z,3.07
2023-03-17T06:02:46.036Z,3.07
2023-03-17T06:05:17.191Z,3.05
2023-03-17T06:07:54.798Z,3.03
2023-03-17T06:10:34.139Z,3.04
2023-03-17T06:13:11.255Z,3.05
2023-03-17T06:15:42.733Z,3.03
2023-03-17T06:18:13.117Z,3.06
2023-03-17T06:21:18.206Z,3.07
2023-03-17T06:23:50.343Z,3.12
2023-03-17T06:26:24.097Z,3.13
2023-03-17T06:28:57.892Z,3.08
2023-03-17T06:31:29.239Z,3.16
2023-03-17T06:33:58.947Z,3.20
2023-03-17T06:36:27.414Z,3.21
2023-03-17T06:39:03.759Z,3.24
2023-03-17T06:41:34.704Z,3.36
2023-03-17T06:44:37.808Z,3.64
2023-03-17T06:47:17.909Z,3.81
2023-03-17T06:49:51.028Z,3.84
2023-03-17T06:52:22.062Z,3.86
2023-03-17T06:54:51.552Z,3.83
2023-03-17T06:57:18.888Z,3.81
2023-03-17T06:59:54.830Z,3.78
2023-03-17T07:02:43.972Z,3.77
2023-03-17T07:05:15.960Z,3.77
2023-03-17T07:07:47.282Z,3.76
2023-03-17T07:10:22.565Z,3.75
2023-03-17T07:12:54.498Z,3.74
2023-03-17T07:15:26.924Z,3.74
2023-03-17T07:18:01.058Z,3.75
2023-03-17T07:20:32.688Z,3.76
2023-03-17T07:23:01.065Z,3.76
2023-03-17T07:25:43.089Z,3.79
2023-03-17T07:28:16.269Z,3.83
2023-03-17T07:32:21.010Z,3.73
2023-03-17T07:34:51.720Z,3.79
2023-03-17T07:37:24.483Z,3.80
2023-03-17T07:40:00.105Z,3.85
2023-03-17T07:42:39.069Z,3.85
2023-03-17T07:45:17.234Z,3.86
2023-03-17T07:47:57.886Z,3.91
2023-03-17T07:50:27.108Z,3.93
2023-03-17T07:53:00.132Z,3.97
2023-03-17T07:55:37.640Z,3.98
2023-03-17T07:58:15.773Z,3.99
2023-03-17T08:00:53.053Z,3.96
2023-03-17T08:03:26.009Z,3.99
2023-03-17T08:05:59.102Z,3.99
2023-03-17T08:08:30.366Z,4.01
2023-03-17T08:11:04.077Z,4.02
2023-03-17T08:13:44.357Z,4.03
2023-03-17T08:16:15.162Z,4.04
2023-03-17T08:18:47.792Z,3.99
2023-03-17T08:21:23.373Z,3.96
2023-03-17T08:24:01.117Z,3.94
2023-03-17T08:26:37.157Z,3.96
2023-03-17T08:29:12.494Z,4.01
2023-03-17T08:31:47.801Z,4.08
2023-03-17T08:34:48.591Z,4.15
2023-03-17T08:37:55.729Z,4.12
2023-03-17T08:40:30.408Z,4.09
2023-03-17T08:43:06.105Z,4.12
2023-03-17T08:45:40.265Z,4.15
2023-03-17T08:48:30.876Z,4.15
2023-03-17T08:51:05.927Z,4.19
2023-03-17T08:53:38.147Z,4.19
2023-03-17T08:56:12.987Z,4.24
2023-03-17T08:58:49.147Z,4.28
2023-03-17T09:01:21.590Z,4.31
2023-03-17T09:03:57.734Z,4.29
2023-03-17T09:06:33.926Z,4.29
2023-03-17T09:09:15.816Z,4.32
2023-03-17T09:11:49.485Z,4.39
2023-03-17T09:14:22.313Z,4.49
2023-03-17T09:16:53.877Z,4.53
2023-03-17T09:19:24.586Z,4.66
2023-03-17T09:21:55.942Z,4.73
2023-03-17T09:24:51.810Z,4.77
2023-03-17T09:27:27.664Z,4.79
2023-03-17T09:29:58.667Z,4.77
2023-03-17T09:32:31.493Z,4.72
2023-03-17T09:35:05.544Z,4.74
2023-03-17T09:37:39.402Z,4.78
2023-03-17T09:41:09.595Z,4.81
2023-03-17T09:44:03.477Z,4.78
2023-03-17T09:47:32.965Z,4.77
2023-03-17T09:50:23.004Z,4.78
2023-03-17T09:52:57.524Z,4.80
2023-03-17T09:55:31.405Z,4.83
2023-03-17T09:58:04.629Z,4.85
2023-03-17T10:00:39.561Z,4.88
2023-03-17T10:03:16.544Z,4.95
2023-03-17T10:06:38.451Z,4.99
2023-03-17T10:09:33.073Z,5.00
2023-03-17T10:12:21.379Z,4.99
2023-03-17T10:15:46.884Z,5.05
2023-03-17T10:18:25.016Z,5.14
2023-03-17T10:21:07.219Z,5.19
2023-03-17T10:23:39.695Z,5.15
2023-03-17T10:26:30.012Z,5.11
2023-03-17T10:29:32.162Z,5.09
2023-03-17T10:32:04.366Z,5.14
2023-03-17T10:34:37.434Z,5.20
2023-03-17T10:37:14.086Z,5.25
2023-03-17T10:40:31.267Z,5.27
2023-03-17T10:43:08.077Z,5.33
2023-03-17T10:46:07.653Z,5.42
2023-03-17T10:48:40.291Z,5.46
2023-03-17T10:51:14.503Z,5.45
2023-03-17T10:53:51.159Z,5.46
2023-03-17T10:56:27.628Z,5.49
2023-03-17T10:59:02.268Z,5.50
2023-03-17T11:01:43.168Z,5.48
2023-03-17T11:04:44.835Z,5.46
2023-03-17T11:08:06.925Z,5.48
2023-03-17T11:10:40.261Z,5.46
2023-03-17T11:13:33.194Z,5.41
2023-03-17T11:16:37.842Z,5.41
2023-03-17T11:19:13.944Z,5.41
2023-03-17T11:22:00.063Z,5.37
2023-03-17T11:24:46.253Z,5.34
2023-03-17T11:27:46.390Z,5.36
2023-03-17T11:37:32.345Z,5.58
2023-03-17T11:40:29.235Z,5.64
2023-03-17T19:50:49.736Z,5.32
2023-03-17T19:53:21.166Z,5.45
2023-03-17T19:55:52.527Z,5.44
2023-03-17T19:58:25.252Z,5.40
2023-03-17T20:00:53.062Z,5.37
2023-03-17T20:03:26.167Z,5.36
2023-03-17T20:06:06.948Z,5.40
2023-03-17T20:08:41.120Z,5.46
2023-03-17T20:11:14.374Z,5.41
2023-03-17T20:13:43.901Z,5.37
2023-03-17T20:16:18.523Z,5.29
2023-03-17T20:18:48.544Z,5.21
2023-03-17T20:22:09.444Z,5.19
2023-03-17T20:24:42.173Z,5.18
2023-03-17T20:27:17.099Z,5.18
2023-03-17T20:29:48.702Z,5.15
2023-03-17T20:32:20.075Z,5.13
2023-03-17T20:34:50.356Z,5.12
2023-03-17T20:37:24.302Z,5.11
2023-03-17T20:40:04.144Z,5.10
2023-03-17T20:42:35.254Z,5.07
2023-03-17T20:45:06.889Z,5.01
2023-03-17T20:47:46.819Z,4.99
2023-03-17T20:50:20.530Z,4.97
2023-03-17T20:52:52.686Z,4.94
2023-03-17T20:55:32.812Z,4.91
2023-03-17T20:58:08.459Z,4.90
2023-03-17T21:01:29.056Z,4.85
2023-03-17T21:04:05.328Z,4.84
2023-03-17T21:06:34.741Z,4.82
2023-03-17T21:09:09.907Z,4.91
2023-03-17T21:11:43.447Z,5.05
2023-03-17T21:14:14.912Z,5.12
2023-03-17T21:16:46.721Z,5.15
2023-03-17T21:19:20.273Z,5.16
2023-03-17T21:21:57.424Z,5.22
2023-03-17T21:24:31.864Z,5.27
2023-03-17T21:27:06.530Z,5.28
2023-03-17T21:29:41.440Z,5.28
2023-03-17T21:32:47.531Z,5.27
2023-03-17T21:35:30.417Z,5.23
2023-03-17T21:38:13.310Z,5.16
2023-03-17T21:40:52.276Z,5.16
2023-03-17T21:43:22.182Z,5.24
2023-03-17T21:45:55.545Z,5.20
2023-03-17T21:48:32.602Z,5.17
2023-03-17T21:51:06.318Z,5.26
2023-03-17T21:53:47.718Z,5.26
2023-03-17T21:56:17.230Z,5.22
2023-03-17T21:58:51.140Z,5.19
2023-03-17T22:01:25.590Z,5.06
2023-03-17T22:04:04.288Z,4.92
2023-03-17T22:06:36.329Z,5.02
2023-03-17T22:09:10.382Z,5.04
2023-03-17T22:11:47.023Z,5.02
2023-03-17T22:14:19.456Z,5.03
2023-03-17T22:16:53.428Z,5.03
2023-03-17T22:19:28.339Z,5.03
